首页
METAR-TAF:

METAR-TAF

机场 :

艾拉島, 苏格兰

纬度: 55-40-55N, 经度: 006-15-24W, 海拔: 16米

当前天气观测

该预报发布于25分钟前的05:50 UTC
风速9节,风向,在东南南转西南之间变化
温度 7°C
湿度 93%
气压 1011 hPa
能见度10公里或以上

METAR: EGPI 250550Z AUTO 18009KT 140V210 9999 OVC012/// 07/06 Q1011

时间: 06:15 (06:15 UTC)

预报

该预报发布于1小时和15分钟前的05:00 UTC
预报有效从25日的 06点(UTC)到 25日的 15点(UTC)
风速9节,风向
能见度10公里或以上
多云层高于1600英尺
短暂存在
从 25日的 06点(UTC)到 25日的 12点(UTC)
能見度: 6000
多云层高于1200英尺
小毛毛雨
几率 30% :
短暂存在
从 25日的 06点(UTC)到 25日的 10点(UTC)
能見度: 4000
多云层高于800英尺
毛毛雨, 轻雾

TAF: EGPI 250500Z 2506/2515 18009KT 9999 BKN016 TEMPO 2506/2512 6000 -DZ BKN012 PROB30 TEMPO 2506/2510 4000 DZ BR BKN008

超过4000个机场的气象观测和天气预报(METAR&TAF报告)。

可查询的气象台以黄色和红色小点在地图上表示。

将鼠标移到小点上方,可查看气象台名称。

然后点击查看天气观测和预报。

如需切换地图:点击带黑十字的绿色按钮放大地图;点击带横线的绿色按钮缩小地图;或者点击绿色箭头查看邻近地区的地图。


METAR-TAF: